Aviation Digital Data Service (ADDS)

Output produced by METARs form (1347 UTC 20 November 2017)
found at http://aviationweather.gov/adds/metars/
 
KAUS 201253Z 00000KT 10SM FEW055 SCT200 03/03 A3020 RMK AO2 SLP234 T00280028 $
KAUS 201153Z 00000KT 10SM SCT200 04/03 A3019 RMK AO2 SLP225 T00390028 10056 20028 56006 $
KAUS 201053Z 22003KT 10SM BKN200 03/03 A3019 RMK AO2 SLP227 T00330028 $
KAUS 200953Z 00000KT 10SM R17L/6000VP6000FT BKN200 04/03 A3020 RMK AO2 SLP227 T00440028 $
KAUS 201120Z 2012/2118 22003KT P6SM BKN250 
     FM201600 17008KT P6SM FEW250 
     FM211100 20006KT P6SM FEW015 SCT250
       
KRYW 201335Z AUTO 16003KT 10SM CLR 08/01 A3020 RMK AO2 T00840012
KRYW 201315Z AUTO 15003KT 10SM CLR 08/02 A3020 RMK AO2 T00810016
KRYW 201255Z AUTO 18003KT 10SM CLR 07/02 A3020 RMK AO2 T00720021
KRYW 201235Z AUTO 00000KT 10SM CLR 08/02 A3019 RMK AO2 T00770023
KRYW 201215Z AUTO 17003KT 10SM CLR 08/02 A3017 RMK AO2 T00810021
KRYW 201155Z AUTO 16003KT 10SM CLR 08/01 A3018 RMK AO2 T00830006 10104 20061
KRYW 201135Z AUTO 18003KT 10SM CLR 09/01 A3018 RMK AO2 T00850012
KRYW 201115Z AUTO 00000KT 10SM CLR 09/01 A3018 RMK AO2 T00890010
KRYW 201055Z AUTO 00000KT 10SM CLR 09/00 A3018 RMK AO2 T00860004
KRYW 201035Z AUTO 14003KT 10SM CLR 09/00 A3018 RMK AO2 T00860000
KRYW 201015Z AUTO 13003KT 10SM CLR 08/00 A3018 RMK AO2 T00830000
KRYW 200955Z AUTO 13003KT 10SM CLR 08/00 A3019 RMK AO2 T00820000